Time;durP1;ratioP1;P1;durP2;ratioP2;P2;SDS_P1;SDS_P2;PMS_P1;PMS_P2;Temp;Humidity;BMP_temperature;BMP_pressure;BME280_temperature;BME280_humidity;BME280_pressure;Samples;Min_cycle;Max_cycle;Signal;HPM_P1;HPM_P2
2024/03/21 00:02:04;;;;;;;0.20;0.20;;;;;;;9.27;100.00;99562.13;5048087;28;20395;-57
2024/03/21 00:04:33;;;;;;;0.30;0.30;;;;;;;9.14;100.00;99564.97;5048004;28;20071;-57
2024/03/21 00:07:02;;;;;;;0.30;0.30;;;;;;;9.10;100.00;99566.44;5050462;28;20044;-57
2024/03/21 00:09:29;;;;;;;0.30;0.30;;;;;;;9.03;100.00;99563.84;5057537;28;20047;-57
2024/03/21 00:11:55;;;;;;;0.20;0.20;;;;;;;8.95;100.00;99572.19;5055118;28;20048;-57
2024/03/21 00:14:23;;;;;;;0.20;0.20;;;;;;;8.81;100.00;99561.66;5052586;28;20055;-60
2024/03/21 00:16:49;;;;;;;0.30;0.30;;;;;;;8.82;100.00;99567.78;5050631;28;20040;-56
2024/03/21 00:19:17;;;;;;;0.20;0.20;;;;;;;8.72;100.00;99575.50;5054729;28;20295;-57
2024/03/21 00:21:45;;;;;;;0.30;0.30;;;;;;;8.68;100.00;99569.78;5048504;28;20068;-57
2024/03/21 00:24:12;;;;;;;0.30;0.30;;;;;;;8.59;100.00;99573.81;5050973;28;20418;-57
2024/03/21 00:26:39;;;;;;;0.20;0.20;;;;;;;8.67;100.00;99580.72;5052067;28;20037;-57
2024/03/21 00:29:07;;;;;;;0.20;0.20;;;;;;;8.74;100.00;99576.13;5046399;28;20635;-57
2024/03/21 00:31:34;;;;;;;0.20;0.20;;;;;;;8.76;100.00;99571.34;5049173;28;20117;-61
2024/03/21 00:34:01;;;;;;;0.20;0.20;;;;;;;8.82;100.00;99571.28;5050569;28;20052;-57
2024/03/21 00:36:27;;;;;;;0.20;0.20;;;;;;;9.02;100.00;99564.91;5047679;28;20439;-59
2024/03/21 00:38:57;;;;;;;0.30;0.30;;;;;;;9.03;100.00;99566.53;5050921;28;20041;-59
2024/03/21 00:41:24;;;;;;;0.30;0.30;;;;;;;9.03;100.00;99566.53;5054271;28;20136;-59
2024/03/21 00:43:51;;;;;;;0.20;0.20;;;;;;;9.02;100.00;99557.69;5055166;28;20036;-59
2024/03/21 00:46:19;;;;;;;0.30;0.30;;;;;;;8.92;100.00;99561.94;5045825;28;20048;-59
2024/03/21 00:48:46;;;;;;;0.30;0.30;;;;;;;8.94;100.00;99562.53;5055579;28;20692;-59
2024/03/21 00:51:13;;;;;;;0.30;0.30;;;;;;;8.90;100.00;99562.16;5046441;28;20045;-58
2024/03/21 00:53:40;;;;;;;0.20;0.20;;;;;;;8.93;100.00;99563.56;5053292;28;20516;-59
2024/03/21 00:56:08;;;;;;;0.20;0.20;;;;;;;9.10;100.00;99564.59;5051797;28;20131;-59
2024/03/21 00:58:35;;;;;;;0.30;0.30;;;;;;;9.15;100.00;99566.59;5044012;28;20111;-59
2024/03/21 01:01:03;;;;;;;0.25;0.25;;;;;;;8.87;100.00;99575.16;5054337;28;20044;-57
2024/03/21 01:03:30;;;;;;;0.20;0.20;;;;;;;8.62;100.00;99573.34;5050598;28;20044;-57
2024/03/21 01:05:56;;;;;;;0.20;0.20;;;;;;;8.50;100.00;99581.28;5051605;28;20055;-57
2024/03/21 01:08:24;;;;;;;0.28;0.28;;;;;;;8.42;100.00;99569.00;5059931;28;20596;-57
2024/03/21 01:10:50;;;;;;;0.28;0.28;;;;;;;8.11;100.00;99579.72;5057862;28;20142;-57
2024/03/21 01:13:18;;;;;;;0.30;0.30;;;;;;;8.15;100.00;99579.06;5054039;28;20714;-57
2024/03/21 01:15:44;;;;;;;0.20;0.20;;;;;;;8.52;100.00;99575.72;5058018;28;20045;-57
2024/03/21 01:18:11;;;;;;;0.20;0.20;;;;;;;8.59;100.00;99571.13;5047607;28;20691;-59
2024/03/21 01:20:40;;;;;;;0.30;0.30;;;;;;;8.52;100.00;99573.03;5055347;28;22422;-57
2024/03/21 01:23:07;;;;;;;0.25;0.25;;;;;;;8.32;100.00;99568.66;5057117;28;20144;-57
2024/03/21 01:25:34;;;;;;;0.30;0.30;;;;;;;8.41;100.00;99572.72;5051148;28;20037;-56
2024/03/21 01:28:02;;;;;;;0.30;0.30;;;;;;;8.47;100.00;99573.69;5059522;28;20045;-59
2024/03/21 01:30:31;;;;;;;0.30;0.30;;;;;;;8.31;100.00;99567.03;5057465;28;20321;-57
2024/03/21 01:32:59;;;;;;;0.30;0.30;;;;;;;8.12;100.00;99558.16;5051239;28;20454;-57
2024/03/21 01:35:25;;;;;;;0.20;0.20;;;;;;;8.33;100.00;99566.81;5059920;28;20048;-56
2024/03/21 01:37:52;;;;;;;0.25;0.25;;;;;;;8.48;100.00;99561.97;5061616;28;20040;-59
2024/03/21 01:40:19;;;;;;;0.22;0.22;;;;;;;8.58;100.00;99564.13;5059399;28;20047;-57
2024/03/21 01:42:48;;;;;;;0.35;0.35;;;;;;;8.43;100.00;99565.28;5056249;28;20617;-59
2024/03/21 01:45:14;;;;;;;0.20;0.20;;;;;;;8.46;100.00;99569.38;5047312;28;20045;-59
2024/03/21 01:47:43;;;;;;;0.20;0.20;;;;;;;8.59;100.00;99563.13;5058381;28;20663;-59
2024/03/21 01:50:09;;;;;;;0.20;0.20;;;;;;;8.54;100.00;99561.09;5054069;28;20043;-59
2024/03/21 01:52:37;;;;;;;0.30;0.30;;;;;;;8.53;100.00;99563.97;5053621;28;20064;-59
2024/03/21 01:55:04;;;;;;;0.30;0.30;;;;;;;8.27;100.00;99565.84;5051724;28;20048;-57
2024/03/21 01:57:32;;;;;;;0.30;0.30;;;;;;;8.29;100.00;99566.44;5048322;28;20558;-59
2024/03/21 01:59:58;;;;;;;0.20;0.20;;;;;;;8.23;100.00;99569.97;5044311;28;20155;-59
2024/03/21 02:02:26;;;;;;;0.20;0.20;;;;;;;8.31;100.00;99571.53;5058342;28;20060;-59
2024/03/21 02:04:54;;;;;;;0.20;0.20;;;;;;;8.19;100.00;99566.94;5049680;28;20052;-59
2024/03/21 02:07:22;;;;;;;0.20;0.20;;;;;;;8.20;100.00;99573.09;5061379;28;20056;-59
2024/03/21 02:09:49;;;;;;;0.28;0.28;;;;;;;8.18;100.00;99577.81;5053669;28;20049;-59
2024/03/21 02:12:41;;;;;;;0.30;0.30;;;;;;;8.10;100.00;99570.91;5059517;28;20044;-59
2024/03/21 02:15:09;;;;;;;0.30;0.30;;;;;;;7.99;100.00;99572.44;5050311;28;20055;-59
2024/03/21 02:17:37;;;;;;;0.35;0.35;;;;;;;7.97;100.00;99577.16;5060250;28;20086;-59
2024/03/21 02:20:06;;;;;;;0.32;0.32;;;;;;;8.02;100.00;99578.38;5046184;28;20120;-59
2024/03/21 02:22:37;;;;;;;0.22;0.22;;;;;;;7.94;100.00;99582.13;5061223;28;20570;-59
2024/03/21 02:25:04;;;;;;;0.30;0.30;;;;;;;7.88;100.00;99586.47;5042556;28;20128;-59
2024/03/21 02:27:31;;;;;;;0.30;0.30;;;;;;;7.86;100.00;99585.03;5058816;28;20077;-58
2024/03/21 02:29:57;;;;;;;0.30;0.30;;;;;;;7.89;100.00;99582.78;5049447;28;20858;-59
2024/03/21 02:32:24;;;;;;;0.40;0.40;;;;;;;8.20;100.00;99592.59;5054946;28;20066;-58
2024/03/21 02:34:50;;;;;;;0.20;0.20;;;;;;;8.27;100.00;99587.19;5053520;28;20041;-57
2024/03/21 02:37:17;;;;;;;0.32;0.32;;;;;;;8.10;100.00;99592.25;5048215;28;20102;-57
2024/03/21 02:39:46;;;;;;;0.35;0.35;;;;;;;8.04;100.00;99582.47;5061109;28;20044;-57
2024/03/21 02:42:15;;;;;;;0.30;0.30;;;;;;;8.05;100.00;99584.09;5049176;28;20045;-57
2024/03/21 02:44:41;;;;;;;0.30;0.30;;;;;;;8.01;100.00;99588.22;5045912;28;20072;-56
2024/03/21 02:47:08;;;;;;;0.30;0.30;;;;;;;7.97;100.00;99584.38;5054125;28;20515;-57
2024/03/21 02:49:34;;;;;;;0.22;0.22;;;;;;;7.97;100.00;99593.19;5051168;28;20041;-57
2024/03/21 02:52:01;;;;;;;0.30;0.30;;;;;;;7.91;100.00;99594.06;5055669;28;20637;-59
2024/03/21 02:54:29;;;;;;;0.30;0.30;;;;;;;7.89;100.00;99590.78;5046190;28;20048;-57
2024/03/21 02:56:58;;;;;;;0.40;0.40;;;;;;;7.83;100.00;99594.28;5050933;28;20043;-57
2024/03/21 02:59:24;;;;;;;0.30;0.30;;;;;;;7.82;100.00;99590.00;5053309;28;20712;-57
2024/03/21 03:01:54;;;;;;;0.30;0.30;;;;;;;7.91;100.00;99591.38;5051999;28;20684;-57
2024/03/21 03:04:20;;;;;;;0.38;0.38;;;;;;;7.92;100.00;99593.00;5041965;28;20049;-57
2024/03/21 03:06:47;;;;;;;0.30;0.30;;;;;;;7.95;100.00;99600.59;5050655;28;20060;-57
2024/03/21 03:09:13;;;;;;;0.30;0.30;;;;;;;7.89;100.00;99603.31;5059537;28;20056;-57
2024/03/21 03:11:40;;;;;;;0.30;0.30;;;;;;;8.00;100.00;99600.75;5061020;28;20134;-57
2024/03/21 03:14:08;;;;;;;0.30;0.30;;;;;;;8.09;100.00;99608.50;5052534;28;20049;-57
2024/03/21 03:16:35;;;;;;;0.30;0.30;;;;;;;7.89;100.00;99600.66;5042784;28;20045;-57
2024/03/21 03:19:01;;;;;;;0.30;0.30;;;;;;;7.85;100.00;99599.44;5049551;28;20782;-57
2024/03/21 03:21:28;;;;;;;0.30;0.30;;;;;;;7.80;100.00;99591.25;5045654;28;20041;-57
2024/03/21 03:23:54;;;;;;;0.30;0.30;;;;;;;7.79;100.00;99601.13;5048599;28;20039;-57
2024/03/21 03:26:21;;;;;;;0.30;0.30;;;;;;;7.56;100.00;99602.47;5046999;28;20036;-58
2024/03/21 03:28:47;;;;;;;0.30;0.30;;;;;;;7.53;100.00;99597.56;5054288;28;20166;-57
2024/03/21 03:31:15;;;;;;;0.30;0.30;;;;;;;7.53;100.00;99604.75;5056757;28;20070;-59
2024/03/21 03:36:27;;;;;;;0.32;0.32;;;;;;;7.72;100.00;99616.34;5055073;28;20152;-57
2024/03/21 03:38:54;;;;;;;0.40;0.40;;;;;;;7.57;100.00;99609.44;5055447;28;20127;-57
2024/03/21 03:41:21;;;;;;;0.20;0.20;;;;;;;7.62;100.00;99610.66;5054777;28;20041;-57
2024/03/21 03:43:48;;;;;;;0.30;0.30;;;;;;;7.78;100.00;99615.47;5057343;28;20047;-59
2024/03/21 03:46:16;;;;;;;0.30;0.30;;;;;;;7.88;100.00;99613.16;5057025;28;20135;-59
2024/03/21 03:48:44;;;;;;;0.30;0.30;;;;;;;7.88;100.00;99615.81;5056555;28;20037;-58
2024/03/21 03:51:11;;;;;;;0.20;0.20;;;;;;;7.73;100.00;99612.63;5036233;28;20059;-57
2024/03/21 03:53:37;;;;;;;0.20;0.20;;;;;;;7.80;100.00;99608.06;5052425;28;20515;-57
2024/03/21 03:56:04;;;;;;;0.30;0.30;;;;;;;7.83;100.00;99602.31;5047973;28;20102;-57
2024/03/21 03:58:31;;;;;;;0.38;0.38;;;;;;;7.68;100.00;99605.25;5052111;28;20040;-57
2024/03/21 04:00:58;;;;;;;0.30;0.30;;;;;;;7.76;100.00;99601.53;5057488;28;20491;-57
2024/03/21 04:03:26;;;;;;;0.32;0.32;;;;;;;7.72;100.00;99601.16;5058369;28;20056;-57
2024/03/21 04:05:56;;;;;;;0.40;0.40;;;;;;;7.39;100.00;99601.34;5049849;28;20140;-57
2024/03/21 04:08:23;;;;;;;0.35;0.35;;;;;;;7.24;100.00;99604.28;5049130;28;20482;-57
2024/03/21 04:10:50;;;;;;;0.30;0.30;;;;;;;7.52;100.00;99601.25;5059536;28;20534;-57
2024/03/21 04:13:17;;;;;;;0.28;0.28;;;;;;;7.59;100.00;99606.56;5055734;28;20056;-59
2024/03/21 04:15:43;;;;;;;0.30;0.30;;;;;;;7.40;100.00;99605.63;5046612;28;20135;-57
2024/03/21 04:18:11;;;;;;;0.30;0.30;;;;;;;7.44;100.00;99609.50;5053999;28;20041;-57
2024/03/21 04:20:39;;;;;;;0.30;0.30;;;;;;;7.49;100.00;99608.88;5046848;28;20043;-60
2024/03/21 04:23:06;;;;;;;0.40;0.40;;;;;;;7.54;100.00;99614.41;5049449;28;20482;-57
2024/03/21 04:25:32;;;;;;;0.30;0.30;;;;;;;7.56;100.00;99623.81;5050901;28;20040;-57
2024/03/21 04:27:59;;;;;;;0.32;0.32;;;;;;;7.47;100.00;99625.09;5034329;28;20056;-57
2024/03/21 04:30:25;;;;;;;0.20;0.20;;;;;;;7.41;100.00;99635.78;5052162;28;20052;-57
2024/03/21 04:32:52;;;;;;;0.25;0.25;;;;;;;7.18;100.00;99633.63;5057082;28;20047;-57
2024/03/21 04:35:18;;;;;;;0.32;0.32;;;;;;;7.21;100.00;99636.66;5053201;28;20048;-57
2024/03/21 04:37:47;;;;;;;0.30;0.30;;;;;;;7.51;100.00;99642.31;5056158;28;20048;-59
2024/03/21 04:40:14;;;;;;;0.22;0.22;;;;;;;7.43;100.00;99641.72;5056086;28;20049;-58
2024/03/21 04:42:41;;;;;;;0.30;0.30;;;;;;;7.55;100.00;99642.69;5064616;28;20117;-58
2024/03/21 04:45:08;;;;;;;0.30;0.30;;;;;;;7.32;100.00;99649.34;5055444;28;20516;-58
2024/03/21 04:47:35;;;;;;;0.30;0.30;;;;;;;7.30;100.00;99648.75;5051958;28;20044;-58
2024/03/21 04:50:02;;;;;;;0.30;0.30;;;;;;;7.36;100.00;99655.06;5051561;28;20441;-58
2024/03/21 04:52:28;;;;;;;0.30;0.30;;;;;;;7.45;100.00;99659.16;5049960;28;20909;-58
2024/03/21 04:54:57;;;;;;;0.30;0.30;;;;;;;7.56;100.00;99671.84;5055943;28;20062;-58
2024/03/21 04:57:23;;;;;;;0.25;0.25;;;;;;;7.51;100.00;99673.47;5060426;28;20134;-58
2024/03/21 04:59:50;;;;;;;0.30;0.30;;;;;;;7.37;100.00;99667.38;5053877;28;20140;-58
2024/03/21 05:02:16;;;;;;;0.40;0.40;;;;;;;6.79;100.00;99667.31;5053372;28;20048;-58
2024/03/21 05:04:43;;;;;;;0.30;0.30;;;;;;;7.06;100.00;99671.59;5056288;28;20044;-58
2024/03/21 05:07:09;;;;;;;0.40;0.40;;;;;;;7.01;100.00;99668.69;5048140;28;20124;-58
2024/03/21 05:09:37;;;;;;;0.30;0.30;;;;;;;7.06;100.00;99671.59;5054378;28;20043;-58
2024/03/21 05:12:04;;;;;;;0.25;0.25;;;;;;;6.92;100.00;99675.31;5064587;28;20043;-58
2024/03/21 05:14:33;;;;;;;0.35;0.35;;;;;;;7.16;100.00;99671.13;5058881;28;20478;-58
2024/03/21 05:16:59;;;;;;;0.30;0.30;;;;;;;7.22;100.00;99680.16;5052856;28;20052;-58
2024/03/21 05:19:27;;;;;;;0.30;0.30;;;;;;;7.33;100.00;99682.16;5054355;28;20076;-58
2024/03/21 05:21:53;;;;;;;0.30;0.30;;;;;;;7.18;100.00;99689.59;5054086;28;20441;-58
2024/03/21 05:24:20;;;;;;;0.20;0.20;;;;;;;7.10;100.00;99694.13;5057348;28;20052;-57
2024/03/21 05:26:46;;;;;;;0.30;0.30;;;;;;;6.94;100.00;99704.38;5064277;28;20522;-57
2024/03/21 05:29:15;;;;;;;0.40;0.40;;;;;;;6.59;100.00;99712.59;5053685;28;20572;-58
2024/03/21 05:31:41;;;;;;;0.20;0.20;;;;;;;6.57;100.00;99709.34;5047733;28;20060;-57
2024/03/21 05:34:08;;;;;;;0.30;0.30;;;;;;;6.41;100.00;99715.88;5057337;28;20106;-57
2024/03/21 05:36:34;;;;;;;0.30;0.30;;;;;;;6.65;100.00;99715.28;5051774;28;20047;-57
2024/03/21 05:39:03;;;;;;;0.30;0.30;;;;;;;6.99;100.00;99712.56;5053670;28;20518;-57
2024/03/21 05:41:29;;;;;;;0.35;0.35;;;;;;;6.95;100.00;99720.19;5059752;28;20110;-58
2024/03/21 05:43:57;;;;;;;0.30;0.30;;;;;;;7.07;100.00;99720.38;5058185;28;20077;-57
2024/03/21 05:46:26;;;;;;;0.32;0.32;;;;;;;7.08;100.00;99732.66;5056957;28;20127;-57
2024/03/21 05:48:54;;;;;;;0.32;0.32;;;;;;;7.05;100.00;99728.56;5056434;28;20072;-57
2024/03/21 05:51:20;;;;;;;0.38;0.38;;;;;;;6.81;100.00;99729.19;5055612;28;20483;-57
2024/03/21 05:53:47;;;;;;;0.30;0.30;;;;;;;7.24;100.00;99726.91;5054079;28;20055;-58
2024/03/21 05:56:14;;;;;;;0.32;0.32;;;;;;;7.43;100.00;99725.22;5047580;28;20553;-57
2024/03/21 05:58:41;;;;;;;0.40;0.40;;;;;;;7.37;100.00;99733.25;5052484;28;20064;-58
2024/03/21 06:01:22;;;;;;;0.40;0.40;;;;;;;7.41;100.00;99743.25;5051685;28;20086;-57
2024/03/21 06:03:50;;;;;;;0.30;0.30;;;;;;;7.39;100.00;99737.34;5050433;28;20051;-58
2024/03/21 06:06:16;;;;;;;0.40;0.40;;;;;;;7.27;100.00;99739.81;5050312;28;20045;-58
2024/03/21 06:08:44;;;;;;;0.40;0.40;;;;;;;7.66;100.00;99737.25;5053958;28;20044;-57
2024/03/21 06:11:10;;;;;;;0.30;0.30;;;;;;;7.94;100.00;99743.09;5061022;28;20072;-58
2024/03/21 06:13:37;;;;;;;0.30;0.30;;;;;;;8.24;100.00;99747.88;5054137;28;20043;-57
2024/03/21 06:16:04;;;;;;;0.32;0.32;;;;;;;8.49;100.00;99749.81;5046729;28;20129;-57
2024/03/21 06:18:31;;;;;;;0.28;0.28;;;;;;;8.73;100.00;99756.19;5060178;28;20049;-57
2024/03/21 06:20:58;;;;;;;0.28;0.28;;;;;;;8.74;100.00;99753.31;5051676;28;20044;-58
2024/03/21 06:23:26;;;;;;;0.22;0.22;;;;;;;8.85;100.00;99757.94;5057092;28;20045;-57
2024/03/21 06:25:52;;;;;;;0.20;0.20;;;;;;;8.95;100.00;99759.31;5054436;28;20094;-57
2024/03/21 06:28:19;;;;;;;0.20;0.20;;;;;;;9.07;100.00;99774.41;5056340;28;20055;-59
2024/03/21 06:30:45;;;;;;;0.20;0.20;;;;;;;9.28;100.00;99789.25;5055832;28;20043;-58
2024/03/21 06:33:12;;;;;;;0.20;0.20;;;;;;;8.90;100.00;99781.34;5056621;28;20118;-57
2024/03/21 06:35:41;;;;;;;0.30;0.30;;;;;;;8.44;100.00;99779.84;5055128;28;20045;-57
2024/03/21 06:38:09;;;;;;;0.20;0.20;;;;;;;8.68;100.00;99780.06;5053528;28;20052;-57
2024/03/21 06:40:35;;;;;;;0.20;0.20;;;;;;;8.63;100.00;99786.06;5053619;28;20127;-57
2024/03/21 06:43:03;;;;;;;0.20;0.20;;;;;;;9.18;100.00;99791.59;5053374;28;20052;-58
2024/03/21 06:45:29;;;;;;;0.28;0.28;;;;;;;10.01;100.00;99787.66;5057674;28;20072;-58
2024/03/21 06:47:57;;;;;;;0.30;0.30;;;;;;;11.57;100.00;99787.53;5055097;28;20130;-58
2024/03/21 06:50:23;;;;;;;0.30;0.30;;;;;;;12.46;100.00;99794.44;5051888;28;20110;-58
2024/03/21 06:52:50;;;;;;;0.28;0.28;;;;;;;12.98;100.00;99807.72;5056023;28;20037;-58
2024/03/21 06:55:19;;;;;;;0.20;0.20;;;;;;;12.94;97.73;99814.66;5054485;28;21451;-58
2024/03/21 06:57:47;;;;;;;0.10;0.10;;;;;;;12.22;100.00;99813.34;5049861;28;20203;-58
2024/03/21 07:00:15;;;;;;;0.10;0.10;;;;;;;11.73;100.00;99818.22;5051527;28;20041;-58
2024/03/21 07:02:41;;;;;;;0.10;0.10;;;;;;;10.97;100.00;99809.22;5051302;28;20044;-58
2024/03/21 07:05:08;;;;;;;0.15;0.15;;;;;;;10.60;100.00;99812.03;5052230;28;20041;-57
2024/03/21 07:07:35;;;;;;;0.10;0.10;;;;;;;10.88;100.00;99808.72;5050250;28;20098;-57
2024/03/21 07:10:02;;;;;;;0.20;0.20;;;;;;;11.14;100.00;99809.38;5049377;28;20041;-58
2024/03/21 07:12:30;;;;;;;0.20;0.20;;;;;;;11.32;100.00;99822.66;5051327;28;20064;-57
2024/03/21 07:14:57;;;;;;;0.20;0.20;;;;;;;11.54;100.00;99835.50;5047671;28;20060;-58
2024/03/21 07:17:24;;;;;;;0.20;0.20;;;;;;;12.83;100.00;99839.72;5039084;28;20072;-57
2024/03/21 07:19:51;;;;;;;0.10;0.10;;;;;;;12.55;100.00;99843.25;5048524;28;20045;-58
2024/03/21 07:22:17;;;;;;;0.10;0.10;;;;;;;12.64;100.00;99848.03;5056939;28;20080;-58
2024/03/21 07:24:45;;;;;;;0.30;0.30;;;;;;;13.86;98.31;99861.03;5054971;28;20040;-58
2024/03/21 07:27:11;;;;;;;0.10;0.10;;;;;;;13.31;98.73;99855.38;5056037;28;20037;-58
2024/03/21 07:29:39;;;;;;;0.10;0.10;;;;;;;12.93;100.00;99859.59;5049897;28;20122;-58
2024/03/21 07:32:05;;;;;;;0.20;0.20;;;;;;;12.59;100.00;99856.00;5053581;28;20064;-57
2024/03/21 07:34:32;;;;;;;0.30;0.30;;;;;;;13.19;100.00;99857.31;5058622;28;20117;-58
2024/03/21 07:36:58;;;;;;;0.20;0.20;;;;;;;13.93;95.44;99861.69;5053955;28;20479;-58
2024/03/21 07:39:25;;;;;;;0.20;0.20;;;;;;;13.80;96.48;99868.22;5057116;28;20411;-57
2024/03/21 07:41:51;;;;;;;0.20;0.20;;;;;;;13.81;95.56;99875.25;5059511;28;20044;-59
2024/03/21 07:44:18;;;;;;;0.20;0.20;;;;;;;13.36;96.56;99862.75;5047949;28;20110;-58
2024/03/21 07:46:46;;;;;;;0.10;0.10;;;;;;;13.01;99.31;99871.81;5057008;28;20452;-58
2024/03/21 07:49:14;;;;;;;0.20;0.20;;;;;;;12.44;100.00;99871.84;5054940;28;20045;-57
2024/03/21 07:51:40;;;;;;;0.10;0.10;;;;;;;12.28;100.00;99884.97;5048095;28;20064;-57
2024/03/21 07:54:07;;;;;;;0.10;0.10;;;;;;;12.35;100.00;99889.38;5048573;28;20051;-57
2024/03/21 07:56:33;;;;;;;0.20;0.20;;;;;;;12.12;100.00;99899.13;5053073;28;20139;-57
2024/03/21 07:59:00;;;;;;;0.17;0.17;;;;;;;12.05;100.00;99901.13;5054739;28;20720;-58
2024/03/21 08:01:27;;;;;;;0.20;0.20;;;;;;;12.01;100.00;99895.41;5048007;28;20131;-58
2024/03/21 08:03:55;;;;;;;0.20;0.20;;;;;;;12.07;100.00;99915.94;5050900;28;20194;-59
2024/03/21 08:06:22;;;;;;;0.20;0.20;;;;;;;12.00;100.00;99903.69;5054687;28;20147;-57
2024/03/21 08:08:49;;;;;;;0.20;0.20;;;;;;;12.17;100.00;99918.03;5051469;28;20064;-57
2024/03/21 08:11:17;;;;;;;0.20;0.20;;;;;;;12.05;100.00;99926.13;5052560;28;20575;-57
2024/03/21 08:13:44;;;;;;;0.20;0.20;;;;;;;12.03;100.00;99936.31;5050779;28;20048;-57
2024/03/21 08:16:11;;;;;;;0.10;0.10;;;;;;;12.37;100.00;99941.03;5051204;28;20795;-57
2024/03/21 08:18:37;;;;;;;0.20;0.20;;;;;;;12.12;100.00;99938.63;5056697;28;20139;-58
2024/03/21 08:21:06;;;;;;;0.13;0.13;;;;;;;12.20;100.00;99943.63;5052824;28;20041;-57
2024/03/21 08:23:32;;;;;;;0.20;0.20;;;;;;;12.69;100.00;99944.13;5053070;28;20045;-58
2024/03/21 08:26:03;;;;;;;0.10;0.10;;;;;;;12.47;100.00;99943.94;5049982;28;20048;-57
2024/03/21 08:28:29;;;;;;;0.10;0.10;;;;;;;12.36;100.00;99955.56;5053925;28;20048;-57
2024/03/21 08:30:56;;;;;;;0.10;0.10;;;;;;;12.45;100.00;99956.78;5057199;28;20583;-57
2024/03/21 08:33:23;;;;;;;0.10;0.10;;;;;;;12.26;100.00;99956.16;5050810;28;20543;-57
2024/03/21 08:35:50;;;;;;;0.20;0.20;;;;;;;12.58;100.00;99961.94;5053635;28;20041;-57
2024/03/21 08:38:18;;;;;;;0.20;0.20;;;;;;;12.45;100.00;99959.50;5049407;28;20044;-57
2024/03/21 08:40:50;;;;;;;0.20;0.20;;;;;;;13.00;100.00;99956.28;5054154;28;20491;-57
2024/03/21 08:43:16;;;;;;;0.20;0.20;;;;;;;13.18;100.00;99960.66;5055281;28;20867;-58
2024/03/21 08:45:45;;;;;;;0.20;0.20;;;;;;;12.61;100.00;99958.75;5054870;28;20045;-58
2024/03/21 08:48:11;;;;;;;0.20;0.20;;;;;;;12.67;100.00;99968.56;5052568;28;20178;-58
2024/03/21 08:50:39;;;;;;;0.10;0.10;;;;;;;13.08;100.00;99963.97;5056681;28;20187;-57
2024/03/21 08:53:05;;;;;;;0.10;0.10;;;;;;;13.79;97.07;99974.38;5062610;28;20233;-58
2024/03/21 08:55:35;;;;;;;0.10;0.10;;;;;;;14.27;92.79;99981.00;5048815;28;20040;-58
2024/03/21 08:58:01;;;;;;;;;;;;;;;13.41;97.90;99973.22;5055915;28;20157;-60
2024/03/21 09:00:31;;;;;;;0.13;0.13;;;;;;;13.30;99.04;99979.47;5054019;28;20017;-58
2024/03/21 09:02:57;;;;;;;;;;;;;;;13.10;99.70;99978.03;5051470;28;20387;-58
2024/03/21 09:05:24;;;;;;;0.10;0.10;;;;;;;12.97;100.00;99978.28;5042065;28;19925;-58
2024/03/21 09:07:50;;;;;;;0.10;0.10;;;;;;;13.16;100.00;99985.13;5055654;28;20049;-58
2024/03/21 09:10:18;;;;;;;0.10;0.10;;;;;;;13.44;99.79;99988.88;5048111;28;20045;-57
2024/03/21 09:12:47;;;;;;;0.20;0.20;;;;;;;13.22;99.46;99986.03;5049272;28;20066;-57
2024/03/21 09:15:14;;;;;;;0.20;0.20;;;;;;;12.80;99.06;99983.59;5048948;28;20114;-57
2024/03/21 09:17:41;;;;;;;0.10;0.10;;;;;;;13.74;95.02;99987.75;5047632;28;20041;-57
2024/03/21 09:20:09;;;;;;;0.13;0.13;;;;;;;13.38;96.23;99995.25;5045942;28;20044;-57
2024/03/21 09:22:35;;;;;;;0.10;0.10;;;;;;;13.21;97.51;99997.03;5050738;28;20045;-59
2024/03/21 09:25:02;;;;;;;0.10;0.10;;;;;;;12.90;97.09;100009.91;5054994;28;20044;-57
2024/03/21 09:27:28;;;;;;;0.10;0.10;;;;;;;12.62;99.33;100008.78;5060906;28;20102;-57
2024/03/21 09:29:57;;;;;;;0.17;0.17;;;;;;;12.63;99.77;100020.34;5059212;28;20041;-57
2024/03/21 09:32:23;;;;;;;0.20;0.20;;;;;;;13.00;97.55;100014.66;5049844;28;20041;-58
2024/03/21 09:34:51;;;;;;;0.10;0.10;;;;;;;13.48;95.14;100016.13;5061300;28;20048;-57
2024/03/21 09:37:17;;;;;;;0.10;0.10;;;;;;;13.25;94.42;100014.34;5056216;28;20049;-57
2024/03/21 09:39:44;;;;;;;0.10;0.10;;;;;;;13.48;92.58;100006.19;5056153;28;20048;-58
2024/03/21 09:42:15;;;;;;;0.10;0.10;;;;;;;13.70;93.10;100006.28;5048609;28;20062;-57
2024/03/21 09:44:43;;;;;;;0.20;0.20;;;;;;;15.67;80.93;100002.03;5055134;28;20812;-57
2024/03/21 09:47:11;;;;;;;0.20;0.20;;;;;;;15.67;77.44;100003.94;5052404;28;20049;-59
2024/03/21 09:49:39;;;;;;;0.20;0.20;;;;;;;15.82;78.87;100004.09;5053968;28;20426;-57
2024/03/21 09:52:05;;;;;;;0.10;0.10;;;;;;;16.19;75.44;100003.28;5055764;28;20559;-58
2024/03/21 09:54:34;;;;;;;0.10;0.10;;;;;;;15.82;78.99;100014.09;5061399;28;20055;-57
2024/03/21 09:57:00;;;;;;;0.10;0.10;;;;;;;15.58;79.17;100011.72;5054756;28;20669;-57
2024/03/21 09:59:28;;;;;;;0.10;0.10;;;;;;;15.80;76.20;100008.13;5049353;28;20053;-57
2024/03/21 10:01:54;;;;;;;0.10;0.10;;;;;;;15.95;77.65;100002.88;5057637;28;20051;-59
2024/03/21 10:04:23;;;;;;;0.10;0.10;;;;;;;16.42;76.48;100015.59;5061008;28;20040;-57
2024/03/21 10:06:49;;;;;;;0.10;0.10;;;;;;;15.10;78.53;100010.66;5057093;28;20044;-57
2024/03/21 10:09:16;;;;;;;0.05;0.05;;;;;;;14.58;82.54;100011.94;5053415;28;20075;-57
2024/03/21 10:11:43;;;;;;;0.10;0.10;;;;;;;14.46;86.05;100020.13;5065757;28;20054;-57
2024/03/21 10:14:12;;;;;;;0.03;0.03;;;;;;;14.59;84.15;100015.47;5049474;28;20160;-57
2024/03/21 10:16:39;;;;;;;0.10;0.10;;;;;;;15.36;79.40;100019.06;5055840;28;20530;-57
2024/03/21 10:19:07;;;;;;;0.05;0.05;;;;;;;15.79;78.99;100028.94;5048251;28;20051;-57
2024/03/21 10:21:35;;;;;;;0.10;0.10;;;;;;;16.18;76.03;100026.81;5051778;28;20326;-57
2024/03/21 10:24:02;;;;;;;0.10;0.10;;;;;;;16.39;74.91;100029.66;5057880;28;20074;-57
2024/03/21 10:26:29;;;;;;;0.00;0.00;;;;;;;16.01;77.82;100031.56;5046013;28;20036;-57
2024/03/21 10:28:56;;;;;;;0.00;0.00;;;;;;;15.52;79.77;100029.78;5047974;28;20041;-57
2024/03/21 10:31:23;;;;;;;0.00;0.00;;;;;;;15.72;78.83;100026.47;5055040;28;20045;-58
2024/03/21 10:33:52;;;;;;;0.05;0.05;;;;;;;14.47;82.15;100026.31;5056419;28;20524;-57
2024/03/21 10:36:19;;;;;;;0.10;0.10;;;;;;;15.12;80.90;100030.13;5047163;28;20139;-57
2024/03/21 10:38:47;;;;;;;0.10;0.10;;;;;;;14.95;83.04;100029.38;5055037;28;20178;-57
2024/03/21 10:41:19;;;;;;;0.10;0.10;;;;;;;15.13;84.79;100030.97;5058208;28;20053;-58
2024/03/21 10:43:48;;;;;;;0.10;0.10;;;;;;;15.48;82.00;100027.84;5047932;28;20040;-58
2024/03/21 10:46:14;;;;;;;0.10;0.10;;;;;;;14.91;85.68;100025.59;5053523;28;20131;-58
2024/03/21 10:48:41;;;;;;;0.10;0.10;;;;;;;15.08;84.27;100023.63;5053889;28;20052;-58
2024/03/21 10:51:11;;;;;;;0.10;0.10;;;;;;;15.12;84.76;100024.72;5051075;28;20499;-58
2024/03/21 10:53:38;;;;;;;0.10;0.10;;;;;;;14.89;84.41;100023.94;5046370;28;20041;-57
2024/03/21 10:56:06;;;;;;;0.15;0.15;;;;;;;15.38;82.89;100030.44;5052048;28;20048;-57
2024/03/21 10:58:33;;;;;;;0.10;0.10;;;;;;;15.90;81.09;100035.25;5048584;28;20052;-57
2024/03/21 11:01:03;;;;;;;0.10;0.10;;;;;;;16.30;76.32;100017.69;5055727;28;20043;-57
2024/03/21 11:03:30;;;;;;;0.10;0.10;;;;;;;17.37;73.74;100031.72;5048874;28;20135;-58
2024/03/21 11:05:56;;;;;;;0.10;0.10;;;;;;;16.26;78.62;100022.00;5056782;28;20040;-58
2024/03/21 11:08:27;;;;;;;0.00;0.00;;;;;;;15.94;77.36;100036.38;5057289;28;20070;-57
2024/03/21 11:10:54;;;;;;;0.10;0.10;;;;;;;15.28;82.44;100023.03;5055928;28;20566;-57
2024/03/21 11:13:23;;;;;;;0.10;0.10;;;;;;;14.86;85.66;100048.72;5058276;28;20500;-57
2024/03/21 11:15:50;;;;;;;0.00;0.00;;;;;;;14.88;86.32;100051.19;5056977;28;20039;-57
2024/03/21 11:18:17;;;;;;;0.10;0.10;;;;;;;14.72;86.92;100055.56;5050996;28;20656;-57
2024/03/21 11:20:44;;;;;;;0.20;0.20;;;;;;;15.29;84.85;100057.88;5068258;28;20762;-57
2024/03/21 11:23:12;;;;;;;0.20;0.20;;;;;;;15.58;82.85;100059.53;5051513;28;20163;-58
2024/03/21 11:25:39;;;;;;;0.17;0.17;;;;;;;15.75;79.80;100060.28;5054965;28;20040;-57
2024/03/21 11:28:06;;;;;;;0.10;0.10;;;;;;;16.31;78.45;100068.84;5050739;28;20563;-58
2024/03/21 11:30:33;;;;;;;0.10;0.10;;;;;;;16.31;77.09;100068.84;5054455;28;20045;-58
2024/03/21 11:33:00;;;;;;;0.10;0.10;;;;;;;15.88;77.85;100067.16;5054092;28;20036;-58
2024/03/21 11:35:27;;;;;;;0.10;0.10;;;;;;;15.65;79.89;100069.06;5049309;28;20060;-59